Time;durP1;ratioP1;P1;durP2;ratioP2;P2;SDS_P1;SDS_P2;PMS_P1;PMS_P2;Temp;Humidity;BMP_temperature;BMP_pressure;BME280_temperature;BME280_humidity;BME280_pressure;Samples;Min_cycle;Max_cycle;Signal;HPM_P1;HPM_P2
2024/01/19 00:01:33;;;;;;;5.43;0.93;;;0.90;99.90;;;;;;5072299;28;20083;-70
2024/01/19 00:03:59;;;;;;;3.92;0.82;;;1.00;99.90;;;;;;5072264;28;20462;-70
2024/01/19 00:06:25;;;;;;;5.78;0.90;;;0.90;99.90;;;;;;5073213;28;20497;-70
2024/01/19 00:08:50;;;;;;;4.10;0.70;;;0.90;99.90;;;;;;5073375;28;20098;-70
2024/01/19 00:11:16;;;;;;;4.53;1.00;;;0.90;99.90;;;;;;5072207;28;20136;-70
2024/01/19 00:13:42;;;;;;;6.82;1.00;;;0.90;99.90;;;;;;5071969;28;20394;-70
2024/01/19 00:16:08;;;;;;;3.15;0.60;;;0.80;99.90;;;;;;5073345;28;20037;-70
2024/01/19 00:18:34;;;;;;;7.22;1.08;;;0.80;99.90;;;;;;5072440;28;20108;-70
2024/01/19 00:21:00;;;;;;;6.13;0.90;;;0.80;99.90;;;;;;5055447;28;20123;-70
2024/01/19 00:23:25;;;;;;;5.28;1.00;;;0.80;99.90;;;;;;5071776;28;20083;-70
2024/01/19 00:25:51;;;;;;;5.47;0.90;;;0.80;99.90;;;;;;5073234;28;20043;-70
2024/01/19 00:28:17;;;;;;;3.25;0.70;;;0.70;99.90;;;;;;5071690;28;20466;-70
2024/01/19 00:30:42;;;;;;;9.95;1.42;;;0.70;99.90;;;;;;5072038;28;20075;-70
2024/01/19 00:33:08;;;;;;;5.20;1.02;;;0.60;99.90;;;;;;5071744;28;20086;-70
2024/01/19 00:35:34;;;;;;;6.50;1.00;;;0.60;99.90;;;;;;5071914;28;20044;-70
2024/01/19 00:37:59;;;;;;;7.75;1.25;;;0.50;99.90;;;;;;5071920;28;20520;-70
2024/01/19 00:40:25;;;;;;;5.68;1.20;;;0.50;99.90;;;;;;5073185;28;20047;-70
2024/01/19 00:42:51;;;;;;;7.28;1.25;;;0.40;99.90;;;;;;5071647;28;20135;-70
2024/01/19 00:45:16;;;;;;;9.93;1.40;;;0.30;99.90;;;;;;5071466;28;20055;-70
2024/01/19 00:47:42;;;;;;;5.88;1.13;;;0.30;99.90;;;;;;5073031;28;20040;-70
2024/01/19 00:50:08;;;;;;;7.72;1.15;;;0.20;99.90;;;;;;5071582;28;20040;-70
2024/01/19 00:52:34;;;;;;;5.25;1.38;;;0.30;99.90;;;;;;5071552;28;20040;-70
2024/01/19 00:55:00;;;;;;;6.65;1.30;;;0.30;99.90;;;;;;5073178;28;20037;-70
2024/01/19 00:57:25;;;;;;;10.90;1.42;;;0.30;99.90;;;;;;5071487;28;20033;-70
2024/01/19 00:59:51;;;;;;;6.13;1.08;;;0.40;99.90;;;;;;5071546;28;20046;-70
2024/01/19 01:02:17;;;;;;;5.45;1.77;;;0.50;99.90;;;;;;5073069;28;20078;-70
2024/01/19 01:04:42;;;;;;;5.57;1.10;;;0.60;99.90;;;;;;5071416;28;20044;-70
2024/01/19 01:07:08;;;;;;;5.85;1.60;;;0.60;99.90;;;;;;5072976;28;20037;-70
2024/01/19 01:09:35;;;;;;;5.55;1.15;;;0.60;99.90;;;;;;5072816;28;20102;-70
2024/01/19 01:12:02;;;;;;;7.88;1.30;;;0.60;99.90;;;;;;5071596;28;20048;-70
2024/01/19 01:14:28;;;;;;;8.02;1.35;;;0.70;99.90;;;;;;5071205;28;20078;-70
2024/01/19 01:16:53;;;;;;;6.43;1.67;;;0.80;99.90;;;;;;5071325;28;20041;-70
2024/01/19 01:19:19;;;;;;;10.95;1.40;;;0.80;99.90;;;;;;5071284;28;20040;-70
2024/01/19 01:21:45;;;;;;;6.50;1.30;;;0.80;99.90;;;;;;5071270;28;20037;-70
2024/01/19 01:24:10;;;;;;;6.10;1.05;;;0.80;99.90;;;;;;5071137;28;20055;-70
2024/01/19 01:26:36;;;;;;;7.03;1.23;;;0.80;99.90;;;;;;5071225;28;20052;-70
2024/01/19 01:29:01;;;;;;;9.35;1.20;;;0.90;99.90;;;;;;5071252;28;20040;-70
2024/01/19 01:31:27;;;;;;;7.65;1.35;;;0.90;99.90;;;;;;5074764;28;20045;-70
2024/01/19 01:33:53;;;;;;;5.75;1.17;;;0.80;99.90;;;;;;5074712;28;20041;-70
2024/01/19 01:36:18;;;;;;;5.53;1.35;;;0.70;99.90;;;;;;5076281;28;20508;-70
2024/01/19 01:38:44;;;;;;;11.50;1.70;;;0.70;99.90;;;;;;5074731;28;20041;-70
2024/01/19 01:41:10;;;;;;;8.77;1.27;;;0.60;99.90;;;;;;5074649;28;20048;-70
2024/01/19 01:43:36;;;;;;;7.05;0.98;;;0.60;99.90;;;;;;5075970;28;20047;-70
2024/01/19 01:46:01;;;;;;;9.02;1.27;;;0.60;99.90;;;;;;5074474;28;20044;-70
2024/01/19 01:48:27;;;;;;;11.23;1.50;;;0.60;99.90;;;;;;5074452;28;20036;-70
2024/01/19 01:50:54;;;;;;;6.63;1.05;;;0.50;99.90;;;;;;5074467;28;20047;-70
2024/01/19 01:53:20;;;;;;;8.77;1.00;;;0.60;99.90;;;;;;5075935;28;20040;-70
2024/01/19 01:55:47;;;;;;;4.15;0.70;;;0.60;99.90;;;;;;5074339;28;20075;-70
2024/01/19 01:58:15;;;;;;;7.07;0.98;;;0.70;99.90;;;;;;5074342;28;20076;-70
2024/01/19 02:00:42;;;;;;;7.25;1.10;;;0.70;99.90;;;;;;5074323;28;20083;-69
2024/01/19 02:03:09;;;;;;;6.47;1.00;;;0.70;99.90;;;;;;5074535;28;20115;-69
2024/01/19 02:05:34;;;;;;;6.40;1.00;;;0.70;99.90;;;;;;5074140;28;20048;-69
2024/01/19 02:08:00;;;;;;;4.47;0.85;;;0.60;99.90;;;;;;5075652;28;20050;-69
2024/01/19 02:10:26;;;;;;;4.55;0.80;;;0.60;99.90;;;;;;5074173;28;20056;-69
2024/01/19 02:12:52;;;;;;;6.00;0.63;;;0.60;99.90;;;;;;5074397;28;20119;-69
2024/01/19 02:15:23;;;;;;;4.55;0.70;;;0.50;99.90;;;;;;5075535;28;20065;-69
2024/01/19 02:17:50;;;;;;;4.82;0.90;;;0.50;99.90;;;;;;5074330;28;20047;-69
2024/01/19 02:20:16;;;;;;;4.28;0.77;;;0.50;99.90;;;;;;5074211;28;20033;-69
2024/01/19 02:22:45;;;;;;;9.18;1.20;;;0.40;99.90;;;;;;5075207;28;20514;-69
2024/01/19 02:25:12;;;;;;;7.55;0.93;;;0.40;99.90;;;;;;5075343;28;20037;-70
2024/01/19 02:27:38;;;;;;;8.30;1.40;;;0.40;99.90;;;;;;5075307;28;20174;-70
2024/01/19 02:30:10;;;;;;;6.97;1.23;;;0.30;99.90;;;;;;5074030;28;20123;-70
2024/01/19 02:32:35;;;;;;;5.93;1.40;;;0.30;99.90;;;;;;5075339;28;20086;-70
2024/01/19 02:35:02;;;;;;;8.02;1.20;;;0.20;99.90;;;;;;5073687;28;20426;-70
2024/01/19 02:37:27;;;;;;;7.70;1.30;;;0.10;99.90;;;;;;5075125;28;20032;-70
2024/01/19 02:39:53;;;;;;;6.72;1.80;;;0.10;99.90;;;;;;5075114;28;20035;-70
2024/01/19 02:42:18;;;;;;;9.38;1.30;;;0.10;99.90;;;;;;5072887;28;20040;-70
2024/01/19 02:44:44;;;;;;;8.10;1.30;;;0.10;99.90;;;;;;5073201;28;20182;-70
2024/01/19 02:47:10;;;;;;;6.93;1.10;;;0.10;99.90;;;;;;5073756;28;20040;-70
2024/01/19 02:49:35;;;;;;;5.85;0.70;;;0.20;99.90;;;;;;5074909;28;20498;-70
2024/01/19 02:52:01;;;;;;;7.75;1.00;;;0.20;99.90;;;;;;5073406;28;20040;-70
2024/01/19 02:54:26;;;;;;;8.00;1.08;;;0.20;99.90;;;;;;5073240;28;20120;-70
2024/01/19 02:56:52;;;;;;;4.60;0.80;;;0.30;99.90;;;;;;5074832;28;20128;-70
2024/01/19 02:59:18;;;;;;;4.45;0.70;;;0.30;99.90;;;;;;5073462;28;20041;-70
2024/01/19 03:01:43;;;;;;;6.82;0.90;;;0.30;99.90;;;;;;5074689;28;20036;-70
2024/01/19 03:04:09;;;;;;;7.78;0.88;;;0.40;99.90;;;;;;5074551;28;20040;-69
2024/01/19 03:06:34;;;;;;;4.30;0.80;;;0.40;99.90;;;;;;5074276;28;20045;-69
2024/01/19 03:09:00;;;;;;;2.58;0.60;;;0.40;99.90;;;;;;5072947;28;20041;-69
2024/01/19 03:11:26;;;;;;;3.10;0.70;;;0.40;99.90;;;;;;5074494;28;20094;-69
2024/01/19 03:13:53;;;;;;;5.90;0.70;;;0.50;99.90;;;;;;5074091;28;20123;-70
2024/01/19 03:16:19;;;;;;;6.65;0.80;;;0.50;99.90;;;;;;5074402;28;20108;-70
2024/01/19 03:18:45;;;;;;;2.75;0.60;;;0.50;99.90;;;;;;5072870;28;20040;-70
2024/01/19 03:21:11;;;;;;;4.55;0.70;;;0.50;99.90;;;;;;5072837;28;20126;-70
2024/01/19 03:23:37;;;;;;;6.50;0.65;;;0.50;99.90;;;;;;5074229;28;20102;-70
2024/01/19 03:26:03;;;;;;;6.95;1.10;;;0.60;99.90;;;;;;5074167;28;20489;-70
2024/01/19 03:28:28;;;;;;;5.32;0.90;;;0.60;99.90;;;;;;5072584;28;20044;-70
2024/01/19 03:30:54;;;;;;;3.70;0.80;;;0.60;99.90;;;;;;5074091;28;20048;-70
2024/01/19 03:33:20;;;;;;;8.25;1.02;;;0.60;99.90;;;;;;5072536;28;20036;-70
2024/01/19 03:35:45;;;;;;;4.70;0.70;;;0.60;99.90;;;;;;5073944;28;20091;-70
2024/01/19 03:38:11;;;;;;;5.85;0.95;;;0.70;99.90;;;;;;5072674;28;20036;-70
2024/01/19 03:40:37;;;;;;;7.50;0.90;;;0.70;99.90;;;;;;5072352;28;20115;-70
2024/01/19 03:43:03;;;;;;;7.32;1.17;;;0.70;99.90;;;;;;5073844;28;20036;-70
2024/01/19 03:45:29;;;;;;;4.07;0.77;;;0.70;99.90;;;;;;5072968;28;20036;-70
2024/01/19 03:47:54;;;;;;;5.70;0.80;;;0.70;99.90;;;;;;5072189;28;20555;-70
2024/01/19 03:50:22;;;;;;;2.85;0.60;;;0.70;99.90;;;;;;5072167;28;20033;-70
2024/01/19 03:52:48;;;;;;;3.83;0.80;;;0.70;99.90;;;;;;5073501;28;20052;-70
2024/01/19 03:55:15;;;;;;;4.18;0.70;;;0.70;99.90;;;;;;5072095;28;20040;-70
2024/01/19 03:57:41;;;;;;;3.55;0.80;;;0.70;99.90;;;;;;5072137;28;20170;-70
2024/01/19 04:00:07;;;;;;;3.38;0.73;;;0.60;99.90;;;;;;5073619;28;20037;-70
2024/01/19 04:02:33;;;;;;;4.85;0.88;;;0.60;99.90;;;;;;5073594;28;20044;-70
2024/01/19 04:04:58;;;;;;;7.05;0.82;;;0.60;99.90;;;;;;5073454;28;20370;-70
2024/01/19 04:07:24;;;;;;;5.72;0.95;;;0.50;99.90;;;;;;5071926;28;20115;-70
2024/01/19 04:09:49;;;;;;;6.63;0.60;;;0.40;99.90;;;;;;5072214;28;20048;-70
2024/01/19 04:12:16;;;;;;;7.40;0.98;;;0.30;99.90;;;;;;5073448;28;20040;-70
2024/01/19 04:14:43;;;;;;;5.20;0.80;;;0.30;99.90;;;;;;5073339;28;20047;-70
2024/01/19 04:17:10;;;;;;;6.70;1.58;;;0.20;99.90;;;;;;5073406;28;20044;-70
2024/01/19 04:19:37;;;;;;;7.03;0.80;;;0.10;99.90;;;;;;5073372;28;20036;-70
2024/01/19 04:22:02;;;;;;;5.55;0.70;;;0.10;99.90;;;;;;5073009;28;20501;-70
2024/01/19 04:24:28;;;;;;;9.13;1.85;;;0.10;99.90;;;;;;5071786;28;20045;-70
2024/01/19 04:26:53;;;;;;;7.38;0.80;;;0.00;99.90;;;;;;5073063;28;20091;-70
2024/01/19 04:29:19;;;;;;;8.10;1.13;;;0.00;99.90;;;;;;5071738;28;20044;-70
2024/01/19 04:31:45;;;;;;;5.63;0.73;;;-0.10;99.90;;;;;;5073297;28;20037;-70
2024/01/19 04:34:10;;;;;;;6.13;0.90;;;-0.10;99.90;;;;;;5072969;28;20036;-70
2024/01/19 04:36:37;;;;;;;3.58;0.82;;;-0.20;99.90;;;;;;5072021;28;20045;-70
2024/01/19 04:39:03;;;;;;;4.40;0.93;;;-0.30;99.90;;;;;;5071751;28;20063;-70
2024/01/19 04:41:29;;;;;;;4.82;0.85;;;-0.40;99.90;;;;;;5071729;28;20040;-70
2024/01/19 04:43:55;;;;;;;5.50;1.00;;;-0.30;99.90;;;;;;5072906;28;20085;-70
2024/01/19 04:46:20;;;;;;;6.32;1.00;;;-0.50;99.90;;;;;;5071682;28;20041;-70
2024/01/19 04:48:46;;;;;;;5.40;1.08;;;-0.50;99.90;;;;;;5073057;28;20036;-70
2024/01/19 04:51:12;;;;;;;7.28;0.88;;;-0.50;99.90;;;;;;5072639;28;20088;-70
2024/01/19 04:53:38;;;;;;;8.38;0.80;;;-0.50;99.90;;;;;;5071815;28;20040;-70
2024/01/19 04:56:05;;;;;;;4.22;0.77;;;-0.40;99.90;;;;;;5071521;28;20119;-70
2024/01/19 04:58:32;;;;;;;7.38;0.75;;;-0.50;99.90;;;;;;5071537;28;20040;-70
2024/01/19 05:00:58;;;;;;;4.45;0.82;;;-0.40;99.90;;;;;;5071752;28;20516;-70
2024/01/19 05:03:23;;;;;;;5.10;1.05;;;-0.40;99.90;;;;;;5072985;28;20080;-70
2024/01/19 05:05:49;;;;;;;5.47;0.80;;;-0.50;99.90;;;;;;5074256;28;20043;-70
2024/01/19 05:08:14;;;;;;;4.38;0.75;;;-0.50;99.90;;;;;;5075236;28;20040;-70
2024/01/19 05:10:40;;;;;;;5.53;0.93;;;-0.50;99.90;;;;;;5075280;28;20052;-70
2024/01/19 05:13:05;;;;;;;5.32;0.90;;;-0.60;99.90;;;;;;5075487;28;20071;-70
2024/01/19 05:15:31;;;;;;;6.03;1.10;;;-0.60;99.90;;;;;;5076616;28;20036;-70
2024/01/19 05:17:57;;;;;;;5.25;1.00;;;-0.60;99.90;;;;;;5076673;28;20083;-70
2024/01/19 05:20:23;;;;;;;7.90;1.27;;;-0.70;99.90;;;;;;5074969;28;20047;-70
2024/01/19 05:22:48;;;;;;;3.85;0.93;;;-0.70;99.90;;;;;;5075366;28;20045;-70
2024/01/19 05:25:18;;;;;;;8.05;0.93;;;-0.70;99.90;;;;;;5076435;28;20037;-70
2024/01/19 05:27:44;;;;;;;7.25;1.33;;;-0.70;99.90;;;;;;5058194;28;20447;-70
2024/01/19 05:30:10;;;;;;;7.63;1.05;;;-0.70;99.90;;;;;;5074883;28;20087;-70
2024/01/19 05:32:36;;;;;;;4.78;1.00;;;-0.70;99.90;;;;;;5074869;28;20091;-70
2024/01/19 05:35:01;;;;;;;7.97;0.82;;;-0.70;99.90;;;;;;5074689;28;20033;-70
2024/01/19 05:37:27;;;;;;;6.70;1.40;;;-0.70;99.90;;;;;;5075410;28;20082;-70
2024/01/19 05:39:52;;;;;;;8.20;1.17;;;-0.70;99.90;;;;;;5074702;28;20529;-70
2024/01/19 05:42:18;;;;;;;5.47;0.93;;;-0.70;99.90;;;;;;5074694;28;20043;-70
2024/01/19 05:44:45;;;;;;;8.07;1.00;;;-0.70;99.90;;;;;;5074363;28;20044;-70
2024/01/19 05:47:11;;;;;;;4.60;1.08;;;-0.70;99.90;;;;;;5075769;28;20561;-70
2024/01/19 05:49:37;;;;;;;11.80;1.38;;;-0.70;99.90;;;;;;5074452;28;20044;-69
2024/01/19 05:52:03;;;;;;;4.10;0.88;;;-0.70;99.90;;;;;;5074521;28;20067;-69
2024/01/19 05:54:29;;;;;;;4.88;0.90;;;-0.80;99.90;;;;;;5074691;28;20046;-69
2024/01/19 05:56:54;;;;;;;6.95;1.08;;;-0.80;99.90;;;;;;5075889;28;20483;-69
2024/01/19 05:59:20;;;;;;;9.00;1.40;;;-0.70;99.90;;;;;;5075883;28;20047;-69
2024/01/19 06:01:45;;;;;;;9.32;1.20;;;-0.70;99.90;;;;;;5057586;28;20132;-69
2024/01/19 06:04:11;;;;;;;8.55;1.40;;;-0.80;99.90;;;;;;5074571;28;20044;-69
2024/01/19 06:06:36;;;;;;;13.10;1.40;;;-0.80;99.90;;;;;;5057828;28;20452;-69
2024/01/19 06:09:02;;;;;;;9.15;1.40;;;-0.80;99.90;;;;;;5074246;28;20099;-69
2024/01/19 06:11:28;;;;;;;12.93;1.30;;;-0.70;99.90;;;;;;5075695;28;20489;-69
2024/01/19 06:13:53;;;;;;;9.20;1.48;;;-0.80;99.90;;;;;;5075547;28;20036;-69
2024/01/19 06:16:19;;;;;;;10.43;1.17;;;-0.80;99.90;;;;;;5074012;28;20037;-69
2024/01/19 06:18:45;;;;;;;6.25;1.10;;;-0.70;99.90;;;;;;5074009;28;20044;-69
2024/01/19 06:21:10;;;;;;;9.23;1.27;;;-0.60;99.90;;;;;;5074178;28;20037;-69
2024/01/19 06:23:39;;;;;;;13.23;1.63;;;-0.60;99.90;;;;;;5073957;28;20045;-69
2024/01/19 06:26:11;;;;;;;7.30;1.25;;;-0.60;99.90;;;;;;5074040;28;20107;-69
2024/01/19 06:28:37;;;;;;;8.63;1.43;;;-0.50;99.90;;;;;;5075323;28;20039;-69
2024/01/19 06:31:05;;;;;;;7.65;1.25;;;-0.50;99.90;;;;;;5075290;28;20037;-69
2024/01/19 06:33:31;;;;;;;10.43;1.45;;;-0.40;99.90;;;;;;5073810;28;20386;-69
2024/01/19 06:35:56;;;;;;;8.18;1.30;;;-0.30;99.90;;;;;;5073701;28;20045;-69
2024/01/19 06:38:23;;;;;;;15.98;1.65;;;-0.20;99.90;;;;;;5075237;28;20115;-69
2024/01/19 06:40:49;;;;;;;10.60;1.60;;;-0.10;99.90;;;;;;5074700;28;20047;-69
2024/01/19 06:43:15;;;;;;;13.20;1.70;;;-0.10;99.90;;;;;;5073493;28;20040;-69
2024/01/19 06:45:40;;;;;;;10.68;1.70;;;0.10;99.90;;;;;;5073480;28;20032;-69
2024/01/19 06:48:06;;;;;;;10.60;1.30;;;0.10;99.90;;;;;;5073389;28;20044;-69
2024/01/19 06:50:32;;;;;;;13.63;1.90;;;0.10;99.90;;;;;;5073445;28;20041;-69
2024/01/19 06:52:59;;;;;;;11.30;2.13;;;0.10;99.90;;;;;;5074925;28;20033;-69
2024/01/19 06:55:25;;;;;;;17.73;2.55;;;0.10;99.90;;;;;;5073720;28;20565;-70
2024/01/19 06:57:51;;;;;;;13.38;2.40;;;0.20;99.90;;;;;;5074815;28;20036;-70
2024/01/19 07:00:18;;;;;;;11.80;2.72;;;0.20;99.90;;;;;;5074798;28;20122;-70
2024/01/19 07:02:44;;;;;;;11.20;1.55;;;0.20;99.90;;;;;;5056515;28;20040;-70
2024/01/19 07:05:10;;;;;;;11.68;1.33;;;0.20;99.90;;;;;;5074598;28;20041;-70
2024/01/19 07:07:36;;;;;;;13.35;1.40;;;0.10;99.90;;;;;;5074559;28;20067;-70
2024/01/19 07:10:01;;;;;;;10.52;1.25;;;0.00;99.90;;;;;;5074475;28;20068;-69
2024/01/19 07:12:27;;;;;;;11.35;1.33;;;0.00;99.90;;;;;;5074545;28;20089;-69
2024/01/19 07:14:53;;;;;;;10.05;1.27;;;-0.10;99.90;;;;;;5072877;28;20486;-69
2024/01/19 07:17:18;;;;;;;7.70;1.25;;;-0.20;99.90;;;;;;5072916;28;20098;-69
2024/01/19 07:19:44;;;;;;;11.57;2.08;;;-0.20;99.90;;;;;;5074353;28;20043;-69
2024/01/19 07:22:10;;;;;;;11.13;1.50;;;-0.30;99.90;;;;;;5056401;28;20044;-69
2024/01/19 07:24:35;;;;;;;12.27;1.40;;;-0.40;99.90;;;;;;5072711;28;20040;-69
2024/01/19 07:27:03;;;;;;;9.98;1.50;;;-0.50;99.90;;;;;;5072462;28;20127;-69
2024/01/19 07:29:30;;;;;;;12.15;1.52;;;-0.60;99.90;;;;;;5074129;28;20044;-69
2024/01/19 07:31:56;;;;;;;7.88;1.35;;;-0.50;99.90;;;;;;5074167;28;20166;-69
2024/01/19 07:34:21;;;;;;;11.07;2.05;;;-0.60;99.90;;;;;;5072681;28;20060;-69
2024/01/19 07:36:47;;;;;;;6.93;1.40;;;-0.70;99.90;;;;;;5074014;28;20032;-69
2024/01/19 07:39:13;;;;;;;10.05;1.48;;;-0.70;99.90;;;;;;5072488;28;20564;-69
2024/01/19 07:41:38;;;;;;;9.10;1.42;;;-0.70;99.90;;;;;;5073962;28;20107;-69
2024/01/19 07:44:04;;;;;;;7.95;1.30;;;-0.80;99.90;;;;;;5072274;28;20463;-69
2024/01/19 07:46:29;;;;;;;9.95;1.48;;;-0.80;99.90;;;;;;5072367;28;20079;-69
2024/01/19 07:48:55;;;;;;;7.97;1.55;;;-0.70;99.90;;;;;;5073856;28;20044;-69
2024/01/19 07:51:22;;;;;;;10.55;1.80;;;-0.60;99.90;;;;;;5073774;28;20068;-69
2024/01/19 07:53:47;;;;;;;5.68;1.48;;;-0.50;99.90;;;;;;5072335;28;20548;-70
2024/01/19 07:56:13;;;;;;;13.30;1.63;;;-0.50;99.90;;;;;;5073723;28;20115;-70
2024/01/19 07:58:42;;;;;;;11.88;1.55;;;-0.30;99.90;;;;;;5072907;28;20040;-69
2024/01/19 08:01:08;;;;;;;10.38;1.33;;;-0.30;99.90;;;;;;5072181;28;20044;-69
2024/01/19 08:03:34;;;;;;;6.00;1.00;;;-0.20;99.90;;;;;;5072385;28;20037;-69
2024/01/19 08:05:59;;;;;;;12.80;1.35;;;-0.10;99.90;;;;;;5072005;28;20421;-69
2024/01/19 08:08:25;;;;;;;8.52;1.27;;;-0.10;99.90;;;;;;5072180;28;20033;-69
2024/01/19 08:10:51;;;;;;;9.25;1.52;;;0.00;99.90;;;;;;5073555;28;20113;-69
2024/01/19 08:13:16;;;;;;;8.20;1.23;;;0.00;99.90;;;;;;5071977;28;20481;-69
2024/01/19 08:15:42;;;;;;;11.23;1.85;;;0.10;99.90;;;;;;5071912;28;20036;-69
2024/01/19 08:18:07;;;;;;;11.65;1.63;;;0.10;99.90;;;;;;5073136;28;20082;-69
2024/01/19 08:20:33;;;;;;;7.40;1.05;;;0.10;99.90;;;;;;5072194;28;20040;-69
2024/01/19 08:22:59;;;;;;;6.82;1.10;;;0.20;99.90;;;;;;5073407;28;20409;-69
2024/01/19 08:25:24;;;;;;;9.38;1.40;;;0.20;99.90;;;;;;5071822;28;20044;-69
2024/01/19 08:27:50;;;;;;;10.70;1.95;;;0.10;99.90;;;;;;5073291;28;20039;-69
2024/01/19 08:30:16;;;;;;;12.10;1.60;;;0.10;99.90;;;;;;5071986;28;20041;-69
2024/01/19 08:32:42;;;;;;;7.88;1.30;;;0.10;99.90;;;;;;5072430;28;20046;-69
2024/01/19 08:35:11;;;;;;;10.48;1.60;;;0.10;99.90;;;;;;5071752;28;20555;-69
2024/01/19 08:37:41;;;;;;;5.07;1.30;;;0.00;99.90;;;;;;5073376;28;20038;-69
2024/01/19 08:40:08;;;;;;;8.20;1.92;;;0.10;99.90;;;;;;5075064;28;20048;-69
2024/01/19 08:42:34;;;;;;;9.30;1.75;;;0.10;99.90;;;;;;5077402;28;20036;-69
2024/01/19 08:44:59;;;;;;;7.65;1.15;;;0.10;99.90;;;;;;5076881;28;20100;-69
2024/01/19 08:47:25;;;;;;;9.07;1.08;;;0.10;99.90;;;;;;5076108;28;20472;-69
2024/01/19 08:49:51;;;;;;;6.93;1.52;;;0.10;99.90;;;;;;5075697;28;20084;-69
2024/01/19 08:52:17;;;;;;;6.07;1.15;;;0.20;99.90;;;;;;5075716;28;20127;-69
2024/01/19 08:54:42;;;;;;;7.18;1.58;;;0.20;99.90;;;;;;5075601;28;20044;-69
2024/01/19 08:57:08;;;;;;;13.40;2.10;;;0.10;99.90;;;;;;5077142;28;20036;-69
2024/01/19 08:59:33;;;;;;;8.75;1.23;;;0.20;99.90;;;;;;5075599;28;20409;-69
2024/01/19 09:01:59;;;;;;;8.73;1.50;;;0.20;99.90;;;;;;5075776;28;20037;-69
2024/01/19 09:04:25;;;;;;;10.43;1.85;;;0.30;99.90;;;;;;5075640;28;20527;-69
2024/01/19 09:06:51;;;;;;;6.47;1.30;;;0.30;99.90;;;;;;5076953;28;20067;-69
2024/01/19 09:09:17;;;;;;;8.57;1.52;;;0.30;99.90;;;;;;5075319;28;20094;-69
2024/01/19 09:11:43;;;;;;;9.82;1.40;;;0.30;99.90;;;;;;5076816;28;20048;-69
2024/01/19 09:14:10;;;;;;;9.00;1.63;;;0.30;99.90;;;;;;5075481;28;20039;-69
2024/01/19 09:16:36;;;;;;;6.28;1.38;;;0.40;99.90;;;;;;5076760;28;20067;-69
2024/01/19 09:19:01;;;;;;;12.52;2.33;;;0.40;99.90;;;;;;5076433;28;20048;-69
2024/01/19 09:21:27;;;;;;;10.50;1.67;;;0.30;99.90;;;;;;5076428;28;20107;-69
2024/01/19 09:23:53;;;;;;;7.32;1.60;;;0.40;99.90;;;;;;5075096;28;20079;-69
2024/01/19 09:26:22;;;;;;;9.15;1.60;;;0.50;99.90;;;;;;5076211;28;20457;-69
2024/01/19 09:28:49;;;;;;;9.45;1.48;;;0.50;99.90;;;;;;5076410;28;20045;-70
2024/01/19 09:31:15;;;;;;;10.57;1.88;;;0.50;99.90;;;;;;5074968;28;20076;-70
2024/01/19 09:33:42;;;;;;;8.73;1.65;;;0.50;99.90;;;;;;5076449;28;20041;-70
2024/01/19 09:36:08;;;;;;;9.02;1.80;;;0.50;99.90;;;;;;5076344;28;20040;-69
2024/01/19 09:38:35;;;;;;;9.70;1.70;;;0.60;99.90;;;;;;5074816;28;20052;-69
2024/01/19 09:41:31;;;;;;;6.78;1.63;;;0.60;99.90;;;;;;5075046;28;20056;-69
2024/01/19 09:43:59;;;;;;;8.13;1.95;;;0.70;99.90;;;;;;5075955;28;20041;-69
2024/01/19 09:46:29;;;;;;;9.10;1.70;;;0.70;99.90;;;;;;5074592;28;20477;-69
2024/01/19 09:49:16;;;;;;;9.15;1.85;;;0.70;99.90;;;;;;5076091;28;20039;-71
2024/01/19 09:51:50;;;;;;;11.93;1.80;;;0.80;99.90;;;;;;5074529;28;20040;-69
2024/01/19 09:54:23;;;;;;;9.75;1.60;;;0.80;99.90;;;;;;5074478;28;20037;-69
2024/01/19 09:56:48;;;;;;;9.00;1.58;;;0.90;99.90;;;;;;5074552;28;20047;-69
2024/01/19 09:59:15;;;;;;;11.48;2.00;;;0.90;99.90;;;;;;5075946;28;20044;-69
2024/01/19 10:01:41;;;;;;;10.90;1.83;;;1.00;99.90;;;;;;5075909;28;20166;-69
2024/01/19 10:04:12;;;;;;;11.60;1.95;;;1.10;99.90;;;;;;5075770;28;20115;-69
2024/01/19 10:06:38;;;;;;;8.77;1.70;;;1.10;99.90;;;;;;5075579;28;20544;-69
2024/01/19 10:09:05;;;;;;;7.53;1.73;;;1.10;99.90;;;;;;5075676;28;20079;-69
2024/01/19 10:11:30;;;;;;;13.57;2.05;;;1.20;99.90;;;;;;5074265;28;20075;-69
2024/01/19 10:13:56;;;;;;;10.02;1.98;;;1.30;99.90;;;;;;5075635;28;20064;-69
2024/01/19 10:16:22;;;;;;;9.40;2.30;;;1.30;99.90;;;;;;5076228;28;20036;-69
2024/01/19 10:18:49;;;;;;;12.02;2.22;;;1.40;99.90;;;;;;5074966;28;20532;-69
2024/01/19 10:21:26;;;;;;;10.60;1.90;;;1.50;99.90;;;;;;5075568;28;20044;-69
2024/01/19 10:24:08;;;;;;;10.93;1.80;;;1.50;99.90;;;;;;5074295;28;20500;-69
2024/01/19 10:26:35;;;;;;;8.05;2.08;;;1.50;99.90;;;;;;5075506;28;20049;-69
2024/01/19 10:29:21;;;;;;;11.63;2.03;;;1.60;99.90;;;;;;5073908;28;20501;-69
2024/01/19 10:31:49;;;;;;;9.77;2.15;;;1.70;99.90;;;;;;5073807;28;20041;-69
2024/01/19 10:34:28;;;;;;;9.02;2.53;;;1.90;99.90;;;;;;5073755;28;20050;-69
2024/01/19 10:36:54;;;;;;;13.20;2.38;;;2.00;99.90;;;;;;5073780;28;20043;-69
2024/01/19 10:39:29;;;;;;;13.10;2.33;;;2.00;99.90;;;;;;5073697;28;20041;-69
2024/01/19 10:42:06;;;;;;;12.15;3.47;;;2.10;99.90;;;;;;5075204;28;20495;-69
2024/01/19 10:44:32;;;;;;;12.02;3.20;;;2.20;99.90;;;;;;5073362;28;20387;-69
2024/01/19 10:46:58;;;;;;;11.30;2.70;;;2.30;99.90;;;;;;5074948;28;20052;-69
2024/01/19 10:49:24;;;;;;;9.40;2.53;;;2.40;99.90;;;;;;5074926;28;20044;-69
2024/01/19 10:51:49;;;;;;;11.93;3.25;;;2.40;99.90;;;;;;5073700;28;20123;-70
2024/01/19 10:54:27;;;;;;;13.00;3.42;;;2.40;99.90;;;;;;5073323;28;20465;-70
2024/01/19 10:57:08;;;;;;;12.35;2.65;;;2.40;99.90;;;;;;5074854;28;20040;-69
2024/01/19 10:59:34;;;;;;;10.40;2.58;;;2.50;99.90;;;;;;5056588;28;20048;-69
2024/01/19 11:02:02;;;;;;;9.45;2.60;;;2.50;99.90;;;;;;5072515;28;20055;-69
2024/01/19 11:04:28;;;;;;;14.27;2.95;;;2.50;99.90;;;;;;5073098;28;20404;-69
2024/01/19 11:06:54;;;;;;;11.60;2.97;;;2.60;99.90;;;;;;5074320;28;20404;-69
2024/01/19 11:09:19;;;;;;;10.93;2.78;;;2.60;99.90;;;;;;5056527;28;20037;-69
2024/01/19 11:11:57;;;;;;;13.98;2.30;;;2.70;99.90;;;;;;5073027;28;20040;-69
2024/01/19 11:14:24;;;;;;;10.82;2.20;;;2.70;99.90;;;;;;5072963;28;20051;-69
2024/01/19 11:16:52;;;;;;;14.25;2.90;;;2.80;99.90;;;;;;5072946;28;20055;-70
2024/01/19 11:19:20;;;;;;;10.98;2.33;;;2.90;99.90;;;;;;5073923;28;20085;-70
2024/01/19 11:21:46;;;;;;;11.40;2.17;;;3.00;99.90;;;;;;5074354;28;20045;-70
2024/01/19 11:24:14;;;;;;;8.98;2.20;;;3.00;99.90;;;;;;5074237;28;20036;-70
2024/01/19 11:26:49;;;;;;;12.63;2.20;;;3.20;99.90;;;;;;5072754;28;20044;-70
2024/01/19 11:29:39;;;;;;;10.43;2.33;;;3.30;99.90;;;;;;5074178;28;20037;-70
2024/01/19 11:32:07;;;;;;;10.35;2.70;;;4.00;99.90;;;;;;5072680;28;20520;-71
2024/01/19 11:34:44;;;;;;;9.63;2.80;;;4.90;99.90;;;;;;5072814;28;20040;-69
2024/01/19 11:37:39;;;;;;;12.85;2.40;;;5.80;99.90;;;;;;5074076;28;20174;-69
2024/01/19 11:40:05;;;;;;;13.10;2.75;;;6.30;99.90;;;;;;5055915;28;20043;-69
2024/01/19 11:42:34;;;;;;;10.63;1.75;;;6.80;99.90;;;;;;5074006;28;20098;-68
2024/01/19 11:45:00;;;;;;;9.65;2.42;;;7.20;99.90;;;;;;5072412;28;20048;-69
2024/01/19 11:47:36;;;;;;;9.23;2.20;;;7.40;99.90;;;;;;5072711;28;20127;-69
2024/01/19 11:50:03;;;;;;;8.95;1.60;;;7.60;99.90;;;;;;5072239;28;20049;-69
2024/01/19 11:52:35;;;;;;;10.75;1.92;;;7.40;99.90;;;;;;5072489;28;20037;-69
2024/01/19 11:55:26;;;;;;;8.18;2.28;;;7.60;99.90;;;;;;5073692;28;20040;-69
2024/01/19 11:57:55;;;;;;;7.50;1.85;;;8.00;99.90;;;;;;5072192;28;20497;-69
2024/01/19 12:00:21;;;;;;;10.80;1.98;;;8.00;99.90;;;;;;5072447;28;20520;-69
2024/01/19 12:02:48;;;;;;;9.23;2.10;;;8.20;99.90;;;;;;5073635;28;20107;-69
2024/01/19 12:05:18;;;;;;;7.45;2.05;;;8.70;99.90;;;;;;5072053;28;20036;-69
2024/01/19 12:07:44;;;;;;;9.73;2.03;;;9.20;99.90;;;;;;5072088;28;20051;-69
2024/01/19 12:10:11;;;;;;;9.27;1.77;;;9.50;99.90;;;;;;5073517;28;20044;-69
2024/01/19 12:12:37;;;;;;;9.95;2.22;;;9.50;99.90;;;;;;5073561;28;20040;-69
2024/01/19 12:15:08;;;;;;;6.82;1.77;;;9.50;99.90;;;;;;5071827;28;20216;-69
2024/01/19 12:17:40;;;;;;;10.65;1.95;;;9.40;99.90;;;;;;5073555;28;20076;-69
2024/01/19 12:20:09;;;;;;;12.88;2.17;;;9.10;99.90;;;;;;5073142;28;20475;-69
2024/01/19 12:22:36;;;;;;;10.38;2.45;;;8.90;99.90;;;;;;5071905;28;20054;-69
2024/01/19 12:25:21;;;;;;;7.45;1.90;;;9.00;99.90;;;;;;5073422;28;20047;-69
2024/01/19 12:27:48;;;;;;;12.25;1.65;;;9.20;99.90;;;;;;5072158;28;20094;-69
2024/01/19 12:30:17;;;;;;;6.70;2.25;;;9.70;99.90;;;;;;5071762;28;20040;-69
2024/01/19 12:32:44;;;;;;;11.38;2.47;;;10.30;99.50;;;;;;5073339;28;20124;-69
2024/01/19 12:35:13;;;;;;;10.45;2.15;;;11.20;94.60;;;;;;5072102;28;20041;-69
2024/01/19 12:37:39;;;;;;;10.50;2.17;;;12.20;91.10;;;;;;5072139;28;20029;-69
2024/01/19 12:40:15;;;;;;;6.22;1.77;;;12.90;86.30;;;;;;5071990;28;20066;-69
2024/01/19 12:42:41;;;;;;;8.02;2.13;;;13.50;81.60;;;;;;5071801;28;20075;-69
2024/01/19 12:45:15;;;;;;;12.27;2.30;;;13.90;78.20;;;;;;5072009;28;20090;-69
2024/01/19 12:47:49;;;;;;;7.03;1.60;;;14.30;75.50;;;;;;5071726;28;20101;-68
2024/01/19 12:50:15;;;;;;;12.02;2.03;;;14.60;74.00;;;;;;5072791;28;20516;-69